Time;durP1;ratioP1;P1;durP2;ratioP2;P2;SDS_P1;SDS_P2;PMS_P1;PMS_P2;Temp;Humidity;BMP_temperature;BMP_pressure;BME280_temperature;BME280_humidity;BME280_pressure;Samples;Min_cycle;Max_cycle;Signal;HPM_P1;HPM_P2
2023/01/29 00:01:34;;;;;;;26.52;16.08;;;-1.20;99.90;;;;;;4964727;28;20042;-91
2023/01/29 00:04:23;;;;;;;27.17;16.55;;;-1.10;99.90;;;;;;4957577;28;20053;-91
2023/01/29 00:07:11;;;;;;;23.13;15.73;;;-1.20;99.90;;;;;;4965831;28;20055;-91
2023/01/29 00:10:01;;;;;;;30.45;16.13;;;-1.20;1.00;;;;;;4974095;28;20042;-91
2023/01/29 00:12:48;;;;;;;24.73;15.70;;;-1.20;1.00;;;;;;4988446;28;20043;-92
2023/01/29 00:15:37;;;;;;;23.48;15.90;;;-1.20;1.00;;;;;;4992436;28;20110;-92
2023/01/29 00:18:26;;;;;;;23.90;15.85;;;-1.10;1.00;;;;;;4977950;28;20046;-91
2023/01/29 00:21:16;;;;;;;28.85;16.00;;;-1.20;1.00;;;;;;4995350;28;20433;-91
2023/01/29 00:24:05;;;;;;;23.97;12.83;;;-1.20;1.00;;;;;;4988714;28;20046;-92
2023/01/29 00:26:53;;;;;;;30.73;17.58;;;-1.30;1.00;;;;;;4980846;28;20083;-92
2023/01/29 00:29:40;;;;;;;23.33;15.63;;;-1.20;1.00;;;;;;4978303;28;20037;-92
2023/01/29 00:32:28;;;;;;;26.45;15.68;;;-1.20;1.00;;;;;;4978308;28;20125;-89
2023/01/29 00:35:16;;;;;;;26.50;16.23;;;-1.20;99.90;;;;;;4986362;28;20035;-87
2023/01/29 00:38:03;;;;;;;24.23;15.20;;;-1.20;99.90;;;;;;4993681;28;20066;-84
2023/01/29 00:47:29;;;;;;;25.75;15.45;;;-1.30;99.90;;;;;;4999767;28;20046;-89
2023/01/29 00:50:12;;;;;;;23.42;14.23;;;-1.30;99.90;;;;;;4992307;28;20070;-89
2023/01/29 00:52:59;;;;;;;28.50;15.73;;;-1.30;99.90;;;;;;4979115;28;20034;-90
2023/01/29 00:55:47;;;;;;;22.42;14.40;;;-1.20;99.90;;;;;;4985160;28;20046;-91
2023/01/29 00:58:34;;;;;;;20.33;13.27;;;-1.20;99.90;;;;;;4983147;28;20079;-92
2023/01/29 01:04:30;;;;;;;21.63;14.10;;;-1.20;99.90;;;;;;4988665;28;20093;-91
2023/01/29 01:07:19;;;;;;;21.52;13.05;;;-1.20;99.90;;;;;;4983256;28;20070;-92
2023/01/29 01:10:20;;;;;;;18.30;12.70;;;-1.20;99.90;;;;;;4997047;28;20050;-93
2023/01/29 01:13:08;;;;;;;20.83;12.73;;;-1.20;99.90;;;;;;4976652;28;20049;-92
2023/01/29 01:15:55;;;;;;;20.10;13.88;;;-1.20;99.90;;;;;;4984914;28;20138;-90
2023/01/29 01:18:44;;;;;;;21.50;12.90;;;-1.20;99.90;;;;;;4974682;28;20051;-90
2023/01/29 01:21:32;;;;;;;20.60;12.90;;;-1.20;99.90;;;;;;4987139;28;20071;-92
2023/01/29 01:24:20;;;;;;;20.35;12.68;;;-1.20;97.10;;;;;;4975369;29;20086;-91
2023/01/29 01:27:08;;;;;;;23.92;14.27;;;-1.20;77.60;;;;;;4963455;28;20067;-91
2023/01/29 01:29:55;;;;;;;23.73;14.10;;;-1.20;38.50;;;;;;4960479;29;20048;-91
2023/01/29 01:32:43;;;;;;;21.42;13.95;;;-1.20;1.00;;;;;;4956325;28;20047;-91
2023/01/29 01:35:30;;;;;;;22.50;14.63;;;-1.20;1.00;;;;;;4967726;29;20047;-91
2023/01/29 01:38:18;;;;;;;19.10;13.23;;;-1.20;1.00;;;;;;4952376;29;20043;-91
2023/01/29 01:41:05;;;;;;;21.70;13.15;;;-1.20;1.00;;;;;;4953769;28;20109;-93
2023/01/29 01:43:54;;;;;;;22.80;14.00;;;-1.20;1.00;;;;;;4986731;28;20039;-93
2023/01/29 01:46:41;;;;;;;23.70;14.43;;;-1.30;1.00;;;;;;4959663;28;20055;-92
2023/01/29 01:49:31;;;;;;;19.83;13.55;;;-1.20;1.00;;;;;;4963752;28;20054;-91
2023/01/29 01:52:19;;;;;;;20.95;13.27;;;-1.30;1.00;;;;;;4979902;28;20053;-93
2023/01/29 01:55:08;;;;;;;20.63;13.23;;;-1.30;1.00;;;;;;4978262;28;20078;-92
2023/01/29 01:58:02;;;;;;;19.67;12.73;;;-1.30;1.00;;;;;;4977682;28;20050;-90
2023/01/29 02:00:52;;;;;;;24.73;13.27;;;-1.30;1.00;;;;;;4977525;28;20049;-93
2023/01/29 02:10:30;;;;;;;19.45;12.98;;;-1.20;1.00;;;;;;4976585;28;20369;-92
2023/01/29 02:13:18;;;;;;;20.65;13.95;;;-1.30;1.00;;;;;;4963073;28;20066;-91
2023/01/29 02:16:07;;;;;;;17.75;12.55;;;-1.20;1.00;;;;;;4975781;28;20050;-93
2023/01/29 02:18:54;;;;;;;18.80;12.50;;;-1.20;1.00;;;;;;4963648;28;20049;-92
2023/01/29 02:22:05;;;;;;;20.77;13.23;;;-1.20;1.00;;;;;;4980693;28;20046;-91
2023/01/29 02:25:10;;;;;;;22.42;13.20;;;-1.30;99.90;;;;;;4969871;28;20055;-92
2023/01/29 02:28:07;;;;;;;20.73;13.13;;;-1.30;1.00;;;;;;4978683;28;20046;-92
2023/01/29 02:31:08;;;;;;;16.95;11.43;;;-1.30;1.00;;;;;;4970262;28;20058;-92
2023/01/29 02:34:19;;;;;;;21.50;13.25;;;-1.30;1.00;;;;;;4961568;28;20047;-92
2023/01/29 02:37:10;;;;;;;19.70;12.20;;;-1.30;1.00;;;;;;4969463;28;20348;-92
2023/01/29 02:40:12;;;;;;;19.60;13.50;;;-1.40;1.00;;;;;;4960435;28;20062;-92
2023/01/29 02:43:22;;;;;;;15.52;10.63;;;-1.30;1.00;;;;;;4963309;28;20058;-92
2023/01/29 02:46:38;;;;;;;19.40;13.20;;;-1.30;99.90;;;;;;4973995;28;20054;-93
2023/01/29 02:49:43;;;;;;;24.48;12.40;;;-1.40;1.00;;;;;;4983919;28;20116;-92
2023/01/29 02:52:38;;;;;;;21.52;13.18;;;-1.30;1.00;;;;;;4964482;28;20058;-95
2023/01/29 02:55:41;;;;;;;18.27;12.85;;;-1.30;1.00;;;;;;4973987;28;20424;-91
2023/01/29 02:58:35;;;;;;;18.58;12.30;;;-1.30;1.00;;;;;;4958248;29;20142;-91
2023/01/29 03:01:32;;;;;;;19.38;12.68;;;-1.30;99.90;;;;;;4967876;29;20473;-91
2023/01/29 03:04:30;;;;;;;18.70;12.63;;;-1.30;99.90;;;;;;4960860;29;20048;-85
2023/01/29 03:07:43;;;;;;;19.55;12.25;;;-1.30;99.90;;;;;;4991646;28;20049;-90
2023/01/29 03:10:36;;;;;;;15.15;10.80;;;-1.30;99.90;;;;;;4970846;28;20071;-90
2023/01/29 03:13:23;;;;;;;;;;;-1.40;99.90;;;;;;4974524;28;20073;-89
2023/01/29 03:16:32;;;;;;;16.77;10.43;;;-1.30;99.90;;;;;;4979984;28;20264;-93
2023/01/29 03:19:43;;;;;;;17.98;10.88;;;-1.40;99.90;;;;;;4978080;28;20129;-93
2023/01/29 03:22:32;;;;;;;19.27;11.82;;;-1.40;99.90;;;;;;4974475;28;20087;-93
2023/01/29 03:34:53;;;;;;;16.08;11.13;;;-1.40;90.10;;;;;;4979710;28;20047;-93
2023/01/29 03:37:46;;;;;;;16.48;10.98;;;-1.40;70.30;;;;;;4958538;28;20449;-92
2023/01/29 03:41:03;;;;;;;14.65;10.35;;;-1.40;45.10;;;;;;4974050;28;20043;-92
2023/01/29 03:44:00;;;;;;;18.17;11.07;;;-1.40;1.00;;;;;;4964544;28;20121;-92
2023/01/29 03:46:57;;;;;;;18.42;11.15;;;-1.40;1.00;;;;;;4975500;28;20039;-92
2023/01/29 03:50:06;;;;;;;14.95;10.60;;;-1.40;1.00;;;;;;4963870;28;20384;-92
2023/01/29 03:53:11;;;;;;;15.98;10.93;;;-1.40;1.00;;;;;;4963483;28;20049;-92
2023/01/29 03:56:05;;;;;;;16.40;10.65;;;-1.40;1.00;;;;;;4967115;28;20047;-92
2023/01/29 03:59:02;;;;;;;18.70;12.05;;;-1.40;1.00;;;;;;4961053;28;20042;-92
2023/01/29 04:01:56;;;;;;;15.85;11.20;;;-1.50;1.00;;;;;;4979239;28;20065;-93
2023/01/29 04:04:50;;;;;;;19.45;11.57;;;-1.50;1.00;;;;;;4966736;28;20051;-92
2023/01/29 04:07:40;;;;;;;16.55;10.43;;;-1.50;1.00;;;;;;4965206;28;20161;-91
2023/01/29 04:10:29;;;;;;;16.77;11.38;;;-1.50;1.00;;;;;;4982486;28;20074;-92
2023/01/29 04:13:17;;;;;;;17.08;10.93;;;-1.50;99.90;;;;;;4966998;28;20066;-91
2023/01/29 04:16:09;;;;;;;15.52;10.70;;;-1.50;99.90;;;;;;4977097;28;20142;-92
2023/01/29 04:18:58;;;;;;;17.73;11.25;;;-1.50;1.00;;;;;;4989358;28;20121;-90
2023/01/29 04:21:49;;;;;;;14.95;10.65;;;-1.50;1.00;;;;;;4981375;28;20039;-93
2023/01/29 04:24:38;;;;;;;14.80;10.82;;;-1.50;1.00;;;;;;4979006;28;20050;-91
2023/01/29 04:27:57;;;;;;;14.13;9.25;;;-1.50;99.90;;;;;;4975403;28;20470;-93
2023/01/29 04:30:48;;;;;;;13.95;9.45;;;-1.50;99.90;;;;;;4950053;28;20068;-93
2023/01/29 04:33:44;;;;;;;15.75;10.40;;;-1.50;99.90;;;;;;4985111;28;20053;-92
2023/01/29 04:36:41;;;;;;;16.85;10.95;;;-1.40;99.90;;;;;;4973314;28;20051;-92
2023/01/29 04:39:42;;;;;;;18.88;11.50;;;-1.40;99.90;;;;;;4990813;28;20137;-91
2023/01/29 04:42:34;;;;;;;16.23;11.15;;;-1.50;99.90;;;;;;4983386;28;20042;-92
2023/01/29 04:45:35;;;;;;;16.90;10.82;;;-1.40;84.20;;;;;;4984180;28;20121;-91
2023/01/29 04:48:29;;;;;;;16.50;10.43;;;-1.50;43.80;;;;;;4976149;28;20085;-92
2023/01/29 04:51:33;;;;;;;17.02;11.27;;;-1.40;54.20;;;;;;4976693;28;20054;-91
2023/01/29 04:54:24;;;;;;;15.15;11.15;;;-1.50;59.50;;;;;;4985635;28;20164;-92
2023/01/29 04:57:17;;;;;;;16.33;11.18;;;-1.50;76.20;;;;;;4992805;28;20042;-92
2023/01/29 05:00:15;;;;;;;19.02;11.35;;;-1.50;99.50;;;;;;4991736;28;20110;-91
2023/01/29 05:07:14;;;;;;;20.55;10.45;;;-1.50;99.90;;;;;;4994022;28;20045;-87
2023/01/29 05:10:06;;;;;;;16.77;11.07;;;-1.50;99.90;;;;;;4979070;28;20046;-86
2023/01/29 05:13:00;;;;;;;17.83;11.40;;;-1.50;99.90;;;;;;4969065;28;20082;-88
2023/01/29 05:16:00;;;;;;;17.25;11.55;;;-1.50;99.90;;;;;;4960583;28;20043;-91
2023/01/29 05:18:55;;;;;;;19.63;11.18;;;-1.50;99.90;;;;;;4977534;28;20042;-88
2023/01/29 05:21:45;;;;;;;18.13;12.02;;;-1.50;99.90;;;;;;4957973;28;20054;-91
2023/01/29 05:24:35;;;;;;;15.88;10.60;;;-1.50;99.90;;;;;;4952193;28;20065;-90
2023/01/29 05:30:53;;;;;;;18.98;10.73;;;-1.60;99.90;;;;;;4976871;28;20106;-91
2023/01/29 05:33:40;;;;;;;18.27;11.68;;;-1.60;99.90;;;;;;4944040;29;20417;-92
2023/01/29 05:36:28;;;;;;;17.52;11.73;;;-1.60;99.90;;;;;;4964425;28;20057;-91
2023/01/29 05:39:16;;;;;;;18.25;11.85;;;-1.50;99.90;;;;;;4964822;28;20047;-92
2023/01/29 05:42:05;;;;;;;18.38;11.40;;;-1.50;99.90;;;;;;4957190;28;20047;-91
2023/01/29 05:44:52;;;;;;;17.42;11.98;;;-1.50;99.90;;;;;;4963114;28;20158;-91
2023/01/29 05:47:39;;;;;;;16.52;11.63;;;-1.50;99.90;;;;;;4949750;28;20051;-91
2023/01/29 05:50:27;;;;;;;15.85;10.73;;;-1.50;99.90;;;;;;4946008;29;20047;-90
2023/01/29 05:53:14;;;;;;;16.63;11.48;;;-1.50;99.90;;;;;;4951189;29;20043;-91
2023/01/29 05:56:03;;;;;;;18.08;11.90;;;-1.50;99.90;;;;;;4950066;29;20078;-91
2023/01/29 05:58:51;;;;;;;18.50;11.38;;;-1.60;99.90;;;;;;4951630;28;20070;-92
2023/01/29 06:01:39;;;;;;;18.20;12.25;;;-1.50;99.90;;;;;;4949850;28;20054;-92
2023/01/29 06:04:26;;;;;;;14.88;10.40;;;-1.60;45.00;;;;;;4956948;28;20094;-92
2023/01/29 06:07:13;;;;;;;17.77;11.70;;;-1.60;1.00;;;;;;4950046;28;20058;-91
2023/01/29 06:10:06;;;;;;;16.05;11.18;;;-1.60;1.00;;;;;;4950693;28;20062;-90
2023/01/29 06:12:53;;;;;;;18.70;12.27;;;-1.50;99.90;;;;;;4970245;28;20051;-91
2023/01/29 06:15:40;;;;;;;15.95;11.55;;;-1.50;99.90;;;;;;4982386;28;20042;-87
2023/01/29 06:18:31;;;;;;;18.08;11.60;;;-1.50;99.90;;;;;;4961842;29;20087;-92
2023/01/29 06:21:19;;;;;;;16.20;11.30;;;-1.50;99.90;;;;;;4952345;28;20110;-92
2023/01/29 06:24:10;;;;;;;20.60;12.65;;;-1.50;99.90;;;;;;4943118;28;20071;-91
2023/01/29 06:26:58;;;;;;;19.88;13.90;;;-1.50;99.90;;;;;;4937074;29;20050;-89
2023/01/29 06:29:48;;;;;;;21.58;14.02;;;-1.50;99.90;;;;;;4964778;28;20047;-92
2023/01/29 06:33:00;;;;;;;;;;;-1.50;99.90;;;;;;4959921;28;20216;-90
2023/01/29 06:35:47;;;;;;;20.30;13.32;;;-1.50;99.90;;;;;;4962111;28;19923;-91
2023/01/29 06:38:35;;;;;;;19.05;12.95;;;-1.50;99.20;;;;;;4953722;28;20045;-93
2023/01/29 06:41:24;;;;;;;19.77;12.98;;;-1.50;99.00;;;;;;4956238;28;20040;-92
2023/01/29 06:44:20;;;;;;;19.52;12.30;;;-1.50;76.90;;;;;;4942480;29;20102;-91
2023/01/29 06:47:17;;;;;;;16.98;11.43;;;-1.50;43.50;;;;;;4954434;28;20479;-91
2023/01/29 06:50:06;;;;;;;18.05;11.70;;;-1.50;6.70;;;;;;4955714;28;20062;-94
2023/01/29 06:53:00;;;;;;;16.20;12.15;;;-1.60;1.00;;;;;;4948911;28;20066;-93
2023/01/29 06:55:52;;;;;;;17.33;11.98;;;-1.60;1.00;;;;;;4942932;28;20488;-93
2023/01/29 06:58:39;;;;;;;18.05;12.52;;;-1.50;1.00;;;;;;4954927;28;20054;-91
2023/01/29 07:01:27;;;;;;;19.50;12.43;;;-1.50;1.00;;;;;;4955013;29;20202;-91
2023/01/29 07:04:30;;;;;;;18.30;12.05;;;-1.50;1.00;;;;;;4955254;29;20047;-92
2023/01/29 07:07:18;;;;;;;18.65;12.60;;;-1.50;1.00;;;;;;4959861;29;20051;-90
2023/01/29 07:10:14;;;;;;;19.60;12.93;;;-1.50;1.00;;;;;;4969348;28;20035;-87
2023/01/29 07:13:08;;;;;;;21.20;14.07;;;-1.50;1.00;;;;;;4960418;28;20054;-91
2023/01/29 07:16:02;;;;;;;19.35;12.73;;;-1.50;28.20;;;;;;4951330;28;20047;-92
2023/01/29 07:18:52;;;;;;;19.38;13.45;;;-1.50;56.30;;;;;;4963218;28;20058;-90
2023/01/29 07:21:39;;;;;;;22.92;14.55;;;-1.40;89.70;;;;;;4954099;29;20058;-91
2023/01/29 07:24:31;;;;;;;21.67;14.23;;;-1.40;99.90;;;;;;4959808;28;20051;-92
2023/01/29 07:27:18;;;;;;;19.52;13.35;;;-1.40;99.90;;;;;;4945190;29;20110;-92
2023/01/29 07:30:11;;;;;;;18.77;13.32;;;-1.40;99.90;;;;;;4954609;28;20054;-92
2023/01/29 07:33:07;;;;;;;18.30;12.90;;;-1.40;91.60;;;;;;4971221;28;20070;-91
2023/01/29 07:35:54;;;;;;;19.23;13.35;;;-1.40;20.90;;;;;;4945986;28;20051;-91
2023/01/29 07:38:43;;;;;;;17.42;13.07;;;-1.40;1.00;;;;;;4939302;28;20071;-91
2023/01/29 07:41:31;;;;;;;17.20;11.93;;;-1.40;1.00;;;;;;4954605;29;20070;-92
2023/01/29 07:44:19;;;;;;;17.80;12.23;;;-1.40;1.00;;;;;;4971333;28;20411;-92
2023/01/29 07:47:06;;;;;;;19.77;13.02;;;-1.30;1.00;;;;;;4957455;29;20035;-92
2023/01/29 07:49:53;;;;;;;18.75;12.65;;;-1.30;1.00;;;;;;4958147;29;20059;-91
2023/01/29 07:52:43;;;;;;;19.55;13.15;;;-1.20;1.00;;;;;;4954962;29;20054;-91
2023/01/29 07:55:35;;;;;;;17.27;12.27;;;-1.20;1.00;;;;;;4935995;29;20075;-89
2023/01/29 07:58:22;;;;;;;19.40;12.70;;;-1.10;1.00;;;;;;4966256;28;20040;-89
2023/01/29 08:01:09;;;;;;;18.48;12.35;;;-1.10;1.00;;;;;;4968833;29;20062;-89
2023/01/29 08:03:56;;;;;;;16.98;12.07;;;-1.10;1.00;;;;;;4968742;29;20052;-86
2023/01/29 08:06:46;;;;;;;18.60;12.18;;;-1.10;1.00;;;;;;4953547;29;20098;-88
2023/01/29 08:09:35;;;;;;;19.88;12.45;;;-1.20;1.00;;;;;;4952303;29;20100;-89
2023/01/29 08:12:22;;;;;;;20.73;13.02;;;-1.10;1.00;;;;;;4974363;28;20043;-91
2023/01/29 08:15:14;;;;;;;21.67;13.30;;;-1.10;99.90;;;;;;4965550;29;20055;-88
2023/01/29 08:22:06;;;;;;;20.45;13.48;;;-1.00;99.90;;;;;;4967088;29;20074;-89
2023/01/29 08:25:04;;;;;;;20.42;13.10;;;-1.00;99.90;;;;;;4949159;28;20114;-91
2023/01/29 08:27:58;;;;;;;20.27;12.90;;;-1.00;99.90;;;;;;4958089;28;20115;-89
2023/01/29 08:30:46;;;;;;;18.07;12.80;;;-0.90;99.90;;;;;;4951844;29;20106;-93
2023/01/29 08:33:39;;;;;;;18.48;13.05;;;-0.90;99.90;;;;;;4958478;29;20054;-91
2023/01/29 08:36:29;;;;;;;17.42;12.60;;;-0.90;99.90;;;;;;4965729;28;20123;-93
2023/01/29 08:39:16;;;;;;;21.02;13.80;;;-0.80;99.90;;;;;;4970163;28;20075;-91
2023/01/29 08:42:04;;;;;;;21.55;14.32;;;-0.80;99.90;;;;;;4958179;28;20047;-91
2023/01/29 08:44:55;;;;;;;19.67;13.15;;;-0.90;99.90;;;;;;4966244;28;20372;-90
2023/01/29 08:47:47;;;;;;;20.33;13.48;;;-0.90;99.90;;;;;;4962726;28;20043;-91
2023/01/29 08:50:35;;;;;;;19.63;13.95;;;-0.90;99.90;;;;;;4944385;29;20111;-91
2023/01/29 08:53:23;;;;;;;21.75;15.15;;;-0.80;99.90;;;;;;4945785;29;20055;-91
2023/01/29 08:56:11;;;;;;;24.70;16.02;;;-0.80;99.90;;;;;;4948306;29;20062;-90
2023/01/29 08:58:58;;;;;;;18.98;13.10;;;-0.70;99.90;;;;;;4947188;29;20075;-90
2023/01/29 09:01:45;;;;;;;17.13;13.13;;;-0.70;99.90;;;;;;4947864;29;20468;-89
2023/01/29 09:04:32;;;;;;;17.35;11.32;;;-0.70;99.90;;;;;;4950884;29;20414;-93
2023/01/29 09:07:28;;;;;;;19.73;12.55;;;-0.70;99.90;;;;;;4960453;28;20051;-88
2023/01/29 09:10:23;;;;;;;16.25;11.77;;;-0.60;99.90;;;;;;4948777;29;20191;-91
2023/01/29 09:13:11;;;;;;;17.05;12.18;;;-0.60;99.90;;;;;;4958216;28;20129;-88
2023/01/29 09:16:02;;;;;;;17.00;12.32;;;-0.50;99.90;;;;;;4970889;28;20146;-89
2023/01/29 09:18:49;;;;;;;17.42;12.93;;;-0.50;99.90;;;;;;4960216;29;20098;-90
2023/01/29 09:21:36;;;;;;;17.52;12.90;;;-0.50;99.90;;;;;;4951579;29;20054;-90
2023/01/29 09:24:24;;;;;;;19.27;13.20;;;-0.40;99.90;;;;;;4944246;29;20055;-90
2023/01/29 09:27:12;;;;;;;20.40;14.18;;;-0.30;99.90;;;;;;4949521;28;20054;-90
2023/01/29 09:29:59;;;;;;;19.52;13.27;;;-0.20;99.90;;;;;;4966619;28;20112;-91
2023/01/29 09:32:46;;;;;;;18.30;13.73;;;-0.20;99.90;;;;;;4968117;28;20042;-91
2023/01/29 09:35:42;;;;;;;20.63;13.88;;;-0.10;99.90;;;;;;4966965;28;20054;-90
2023/01/29 09:38:29;;;;;;;18.90;13.27;;;-0.10;99.90;;;;;;4947916;29;20043;-89
2023/01/29 09:41:31;;;;;;;20.25;14.20;;;-0.10;99.90;;;;;;4960587;28;20133;-89
2023/01/29 09:44:37;;;;;;;20.93;13.57;;;-0.10;99.90;;;;;;4944986;29;20157;-88
2023/01/29 09:47:29;;;;;;;17.60;12.95;;;0.10;99.90;;;;;;4935457;29;20292;-89
2023/01/29 09:50:33;;;;;;;20.08;14.10;;;0.20;99.90;;;;;;4955181;29;20058;-90
2023/01/29 09:53:37;;;;;;;22.77;14.30;;;0.20;99.90;;;;;;4944792;29;20130;-89
2023/01/29 09:56:27;;;;;;;18.58;13.38;;;0.10;96.30;;;;;;4940277;29;20499;-86
2023/01/29 09:59:18;;;;;;;16.30;11.77;;;-0.10;97.50;;;;;;4931404;29;20067;-88
2023/01/29 10:02:16;;;;;;;19.50;13.35;;;-0.20;85.60;;;;;;4948720;28;20480;-90
2023/01/29 10:05:19;;;;;;;17.95;12.82;;;-0.30;91.10;;;;;;4959558;29;20059;-90
2023/01/29 10:08:15;;;;;;;15.83;11.87;;;-0.20;99.90;;;;;;4940698;29;20170;-92
2023/01/29 10:11:30;;;;;;;20.15;13.60;;;-0.10;98.40;;;;;;4948050;29;20141;-88
2023/01/29 10:14:20;;;;;;;16.00;12.05;;;0.00;99.90;;;;;;4963211;28;20487;-91
2023/01/29 10:17:22;;;;;;;20.52;12.70;;;0.00;97.00;;;;;;4967261;28;20047;-90
2023/01/29 10:20:35;;;;;;;20.20;13.10;;;0.20;91.70;;;;;;4945103;29;20055;-88
2023/01/29 10:23:26;;;;;;;16.60;11.82;;;0.30;71.00;;;;;;4936105;29;20062;-93
2023/01/29 10:26:17;;;;;;;15.63;10.73;;;0.50;55.00;;;;;;4943177;28;20051;-88
2023/01/29 10:29:06;;;;;;;16.10;11.77;;;0.90;11.70;;;;;;4932745;29;20039;-89
2023/01/29 10:32:03;;;;;;;15.25;10.57;;;1.00;1.00;;;;;;4927490;29;20107;-87
2023/01/29 10:34:58;;;;;;;19.75;10.48;;;1.40;1.00;;;;;;4946511;29;20046;-90
2023/01/29 10:37:48;;;;;;;13.43;9.85;;;1.90;1.00;;;;;;4955153;28;20365;-86
2023/01/29 10:41:10;;;;;;;15.35;10.32;;;2.00;1.00;;;;;;4945270;29;20387;-91
2023/01/29 10:44:00;;;;;;;15.23;10.45;;;1.60;1.00;;;;;;4931361;29;20075;-89
2023/01/29 10:47:09;;;;;;;12.93;9.52;;;1.60;1.00;;;;;;4957837;29;20118;-89
2023/01/29 10:50:15;;;;;;;15.50;9.63;;;1.50;1.00;;;;;;4950998;28;20058;-89
2023/01/29 10:53:08;;;;;;;17.58;12.00;;;1.60;1.00;;;;;;4953889;29;20091;-90
2023/01/29 10:56:07;;;;;;;14.43;9.65;;;1.70;1.00;;;;;;4953367;28;20442;-89
2023/01/29 10:59:33;;;;;;;13.48;9.70;;;1.70;1.00;;;;;;4971535;28;20047;-91
2023/01/29 11:02:21;;;;;;;12.50;9.43;;;1.50;1.00;;;;;;4945842;28;20066;-89
2023/01/29 11:05:35;;;;;;;12.65;9.18;;;1.40;1.00;;;;;;4957313;28;20095;-87
2023/01/29 11:08:27;;;;;;;11.88;9.43;;;1.40;1.00;;;;;;4952767;28;20050;-89
2023/01/29 11:11:16;;;;;;;15.82;10.13;;;1.50;1.00;;;;;;4958068;29;20047;-89
2023/01/29 11:14:12;;;;;;;14.57;9.50;;;2.00;1.00;;;;;;4940608;28;20058;-89
2023/01/29 11:17:00;;;;;;;13.88;8.75;;;2.40;99.90;;;;;;4961781;29;20051;-90
2023/01/29 11:19:52;;;;;;;11.18;8.32;;;2.50;99.90;;;;;;4958831;29;20536;-88
2023/01/29 11:22:53;;;;;;;10.57;7.75;;;2.60;99.90;;;;;;4948737;29;20043;-89
2023/01/29 11:25:54;;;;;;;10.93;7.63;;;2.90;99.90;;;;;;4945405;29;20043;-89
2023/01/29 11:28:46;;;;;;;9.85;7.63;;;2.90;99.90;;;;;;4955179;29;20046;-89
2023/01/29 11:31:38;;;;;;;11.50;8.45;;;3.00;99.90;;;;;;4960601;29;20078;-88
2023/01/29 11:34:32;;;;;;;11.57;9.07;;;2.90;99.90;;;;;;4958312;28;20051;-87
2023/01/29 11:37:21;;;;;;;12.55;9.25;;;2.60;99.90;;;;;;4967124;28;20075;-87
2023/01/29 11:40:35;;;;;;;13.23;9.77;;;2.50;99.90;;;;;;4936020;29;20465;-87
2023/01/29 11:43:31;;;;;;;12.90;9.68;;;2.60;99.90;;;;;;4942508;29;20066;-89
2023/01/29 11:46:18;;;;;;;13.07;9.52;;;2.90;99.90;;;;;;4951114;28;20047;-86
2023/01/29 11:49:26;;;;;;;14.85;9.77;;;2.70;99.90;;;;;;4965591;28;20135;-86
2023/01/29 11:52:18;;;;;;;18.08;9.77;;;2.20;99.90;;;;;;4943349;28;20173;-85
2023/01/29 11:55:26;;;;;;;15.63;9.85;;;2.00;99.90;;;;;;4968024;28;20057;-87
2023/01/29 11:58:29;;;;;;;16.80;11.07;;;2.10;99.90;;;;;;4959371;28;20476;-86
2023/01/29 12:01:29;;;;;;;15.48;10.63;;;2.60;99.90;;;;;;4938413;29;20066;-87
2023/01/29 12:04:22;;;;;;;13.52;9.73;;;2.80;99.90;;;;;;4956910;29;20074;-87
2023/01/29 12:07:16;;;;;;;12.27;10.15;;;3.10;99.90;;;;;;4948155;28;20046;-86
2023/01/29 12:10:04;;;;;;;16.80;11.75;;;3.10;99.90;;;;;;4969523;28;20047;-85
2023/01/29 12:13:05;;;;;;;20.15;10.90;;;3.10;99.90;;;;;;4966341;29;20133;-88
2023/01/29 12:16:25;;;;;;;13.15;9.95;;;3.50;99.90;;;;;;4979462;28;20067;-88
2023/01/29 12:19:45;;;;;;;16.40;8.65;;;3.50;99.90;;;;;;4942675;29;20093;-88
2023/01/29 12:22:58;;;;;;;13.40;9.23;;;3.50;99.90;;;;;;4970088;28;20047;-88
2023/01/29 12:25:51;;;;;;;15.65;10.45;;;3.70;99.90;;;;;;4967244;29;20050;-89
2023/01/29 12:28:46;;;;;;;16.65;10.07;;;3.30;99.90;;;;;;4987392;28;20051;-86
2023/01/29 12:31:45;;;;;;;16.92;10.93;;;2.90;99.90;;;;;;4985391;28;20074;-85
2023/01/29 12:35:02;;;;;;;13.52;10.10;;;3.00;99.90;;;;;;4985893;28;20066;-86
2023/01/29 12:38:02;;;;;;;18.15;10.82;;;3.20;99.90;;;;;;4983688;28;20059;-85
2023/01/29 12:41:03;;;;;;;18.65;10.98;;;3.00;99.90;;;;;;4956717;29;20057;-85
2023/01/29 12:44:11;;;;;;;15.80;10.85;;;2.90;99.90;;;;;;4960150;29;20070;-86
2023/01/29 12:47:05;;;;;;;15.30;10.02;;;2.40;99.90;;;;;;4967280;29;20144;-87
2023/01/29 12:50:02;;;;;;;15.30;10.30;;;2.40;99.90;;;;;;4962241;28;20049;-86
2023/01/29 12:52:54;;;;;;;15.38;10.30;;;2.60;99.90;;;;;;4972906;28;20043;-85
2023/01/29 12:55:47;;;;;;;14.63;9.75;;;3.10;99.90;;;;;;4948523;29;20059;-84
2023/01/29 12:58:44;;;;;;;13.98;9.32;;;3.30;99.90;;;;;;4955463;29;20063;-85
2023/01/29 13:01:37;;;;;;;14.57;8.55;;;3.20;99.90;;;;;;4952246;29;20087;-85
2023/01/29 13:04:45;;;;;;;13.93;8.32;;;3.40;99.90;;;;;;4946828;29;20040;-86
2023/01/29 13:07:40;;;;;;;12.05;8.50;;;3.50;99.90;;;;;;4945964;29;20390;-87
2023/01/29 13:10:33;;;;;;;16.15;8.15;;;3.90;99.90;;;;;;4977951;28;20057;-87
2023/01/29 13:13:31;;;;;;;10.70;7.65;;;4.20;99.90;;;;;;4951691;28;20472;-89
2023/01/29 13:16:22;;;;;;;11.68;8.57;;;4.20;99.90;;;;;;4963288;29;20047;-87
2023/01/29 13:19:27;;;;;;;12.45;8.98;;;4.30;99.90;;;;;;4950962;28;20039;-88
2023/01/29 13:22:32;;;;;;;10.65;8.45;;;4.60;99.90;;;;;;4951644;29;20126;-87
2023/01/29 13:25:21;;;;;;;13.05;9.25;;;4.90;99.90;;;;;;4960211;29;20417;-87
2023/01/29 13:28:21;;;;;;;16.33;9.98;;;4.70;99.90;;;;;;4953124;29;20055;-86
2023/01/29 13:31:36;;;;;;;13.30;9.38;;;4.40;99.90;;;;;;4926731;29;20114;-86
2023/01/29 13:34:30;;;;;;;17.05;10.60;;;4.20;99.90;;;;;;4947254;28;20058;-87
2023/01/29 13:37:30;;;;;;;17.15;10.20;;;4.20;99.90;;;;;;4949020;28;20054;-88
2023/01/29 13:40:25;;;;;;;15.75;10.35;;;4.70;99.90;;;;;;4958600;28;20047;-86
2023/01/29 13:43:21;;;;;;;18.05;11.18;;;4.80;99.90;;;;;;4943419;29;20492;-87
2023/01/29 13:46:17;;;;;;;22.83;10.20;;;4.80;99.90;;;;;;4947059;29;20403;-87
2023/01/29 13:49:41;;;;;;;16.13;10.35;;;4.10;99.90;;;;;;4956573;28;20047;-87
2023/01/29 13:52:46;;;;;;;15.55;10.25;;;4.10;99.90;;;;;;4944657;29;20047;-87
2023/01/29 13:55:38;;;;;;;14.27;10.35;;;4.50;99.90;;;;;;4960900;28;20047;-85
2023/01/29 13:58:33;;;;;;;16.75;11.07;;;3.80;99.90;;;;;;4951268;28;20062;-87
2023/01/29 14:01:45;;;;;;;19.83;11.88;;;3.00;99.90;;;;;;4937859;29;20043;-88
2023/01/29 14:04:32;;;;;;;16.88;11.45;;;2.40;99.90;;;;;;4967223;28;20171;-88
2023/01/29 14:11:51;;;;;;;15.00;10.60;;;3.50;99.90;;;;;;4976178;28;20050;-88
2023/01/29 14:14:48;;;;;;;15.25;10.45;;;4.40;99.90;;;;;;4960002;28;20043;-85
2023/01/29 14:17:36;;;;;;;15.75;10.63;;;5.10;99.90;;;;;;4977857;28;20050;-86
2023/01/29 14:20:31;;;;;;;19.23;11.10;;;4.80;99.90;;;;;;4976762;28;20047;-87
2023/01/29 14:23:40;;;;;;;17.23;12.20;;;4.20;99.90;;;;;;4934085;29;20071;-87
2023/01/29 14:26:30;;;;;;;14.52;10.27;;;4.40;99.90;;;;;;4952683;29;20047;-88
2023/01/29 14:29:37;;;;;;;17.10;11.18;;;4.40;99.90;;;;;;4960762;28;20074;-86
2023/01/29 14:32:27;;;;;;;17.10;11.18;;;3.90;99.90;;;;;;4968427;28;20039;-87
2023/01/29 14:35:21;;;;;;;17.13;12.20;;;2.80;99.90;;;;;;4955800;29;20051;-87
2023/01/29 14:38:14;;;;;;;16.23;11.75;;;2.30;99.90;;;;;;4969868;28;20058;-87
2023/01/29 14:41:21;;;;;;;;;;;1.90;99.90;;;;;;4962024;29;20075;-85
2023/01/29 14:44:43;;;;;;;21.23;12.32;;;1.70;99.90;;;;;;4969535;28;19930;-87
2023/01/29 14:47:34;;;;;;;19.30;12.55;;;1.70;99.90;;;;;;4957955;29;20464;-85
2023/01/29 14:50:36;;;;;;;20.40;14.30;;;1.80;99.90;;;;;;4960638;29;20061;-84
2023/01/29 14:53:45;;;;;;;19.50;12.80;;;1.70;99.90;;;;;;4958573;29;20059;-86
2023/01/29 14:56:40;;;;;;;19.05;11.80;;;1.60;99.90;;;;;;4964430;28;20055;-87
2023/01/29 14:59:30;;;;;;;22.55;13.63;;;1.60;99.90;;;;;;4962667;28;20035;-88
2023/01/29 15:02:32;;;;;;;24.38;13.27;;;1.70;99.90;;;;;;4960405;28;20063;-85
2023/01/29 15:05:24;;;;;;;20.05;13.43;;;1.70;99.90;;;;;;4969024;28;20044;-86
2023/01/29 15:08:23;;;;;;;18.25;12.60;;;2.10;99.90;;;;;;4964279;28;20047;-85
2023/01/29 15:11:35;;;;;;;21.27;11.98;;;2.10;99.90;;;;;;4944812;29;20048;-85
2023/01/29 15:14:35;;;;;;;55.45;20.77;;;2.10;99.90;;;;;;4954558;28;20071;-86
2023/01/29 15:17:42;;;;;;;613.55;227.07;;;2.60;99.90;;;;;;4961586;28;20051;-86
2023/01/29 15:20:41;;;;;;;19.90;12.75;;;3.40;99.90;;;;;;4956987;28;20047;-85
2023/01/29 15:23:33;;;;;;;20.38;12.25;;;3.80;99.90;;;;;;4964743;28;20051;-84
2023/01/29 15:26:23;;;;;;;23.95;12.70;;;3.60;99.90;;;;;;4969948;28;20043;-85
2023/01/29 15:29:25;;;;;;;26.15;13.90;;;3.30;99.90;;;;;;4968364;28;20095;-89
2023/01/29 15:32:25;;;;;;;16.73;11.43;;;3.10;99.90;;;;;;4960816;28;20817;-88
2023/01/29 15:35:22;;;;;;;16.75;12.63;;;3.00;99.90;;;;;;4944686;28;20058;-88
2023/01/29 15:38:24;;;;;;;21.42;13.52;;;2.50;99.90;;;;;;4941034;29;20055;-87